createdAt,value
2019-03-04T00:02:04.835Z,8.49
2019-03-04T00:04:35.593Z,8.52
2019-03-04T00:07:06.351Z,8.49
2019-03-04T00:09:37.131Z,8.40
2019-03-04T00:12:07.888Z,8.39
2019-03-04T00:14:38.655Z,8.41
2019-03-04T00:17:09.478Z,8.39
2019-03-04T00:19:40.259Z,8.30
2019-03-04T00:22:11.007Z,8.37
2019-03-04T00:24:41.772Z,8.47
2019-03-04T00:27:12.531Z,8.42
2019-03-04T00:29:43.294Z,8.34
2019-03-04T00:32:14.057Z,8.29
2019-03-04T00:34:44.829Z,8.24
2019-03-04T00:37:15.586Z,8.22
2019-03-04T00:39:46.355Z,8.28
2019-03-04T00:42:17.111Z,8.31
2019-03-04T00:44:47.874Z,8.35
2019-03-04T00:47:18.634Z,8.39
2019-03-04T00:49:49.403Z,8.45
2019-03-04T00:52:20.180Z,8.39
2019-03-04T00:54:50.947Z,8.39
2019-03-04T00:57:21.705Z,8.43
2019-03-04T00:59:52.473Z,8.41
2019-03-04T01:02:23.245Z,8.41
2019-03-04T01:04:54.001Z,8.37
2019-03-04T01:07:24.757Z,8.42
2019-03-04T01:09:55.535Z,8.40
2019-03-04T01:12:26.293Z,8.30
2019-03-04T01:14:57.119Z,8.37
2019-03-04T01:17:27.919Z,8.35
2019-03-04T01:19:58.666Z,8.36
2019-03-04T01:22:29.425Z,8.38
2019-03-04T01:25:00.286Z,8.36
2019-03-04T01:27:31.051Z,8.41
2019-03-04T01:30:02.219Z,8.38
2019-03-04T01:32:32.982Z,8.46
2019-03-04T01:35:04.750Z,8.46
2019-03-04T01:37:35.516Z,8.37
2019-03-04T01:40:16.328Z,8.48
2019-03-04T01:42:47.104Z,8.45
2019-03-04T01:45:18.078Z,8.46
2019-03-04T01:47:48.835Z,8.37
2019-03-04T01:50:19.603Z,8.43
2019-03-04T01:52:50.357Z,8.31
2019-03-04T01:55:21.122Z,8.39
2019-03-04T01:57:51.879Z,8.36
2019-03-04T02:00:22.648Z,8.28
2019-03-04T02:02:53.402Z,8.41
2019-03-04T02:05:24.170Z,8.36
2019-03-04T02:07:54.928Z,8.33
2019-03-04T02:10:25.726Z,8.31
2019-03-04T02:12:56.483Z,8.29
2019-03-04T02:15:27.267Z,8.26
2019-03-04T02:17:58.021Z,8.36
2019-03-04T02:20:28.790Z,8.30
2019-03-04T02:22:59.664Z,8.21
2019-03-04T02:25:43.334Z,8.20
2019-03-04T02:28:14.096Z,8.27
2019-03-04T02:30:44.905Z,8.06
2019-03-04T02:33:15.661Z,8.08
2019-03-04T02:35:46.427Z,7.98
2019-03-04T02:38:17.188Z,7.94
2019-03-04T02:40:47.966Z,7.81
2019-03-04T02:43:18.725Z,7.82
2019-03-04T02:45:49.485Z,7.83
2019-03-04T02:48:20.261Z,7.99
2019-03-04T02:50:51.004Z,8.00
2019-03-04T02:53:21.843Z,7.86
2019-03-04T02:55:52.627Z,7.86
2019-03-04T02:58:23.384Z,7.98
2019-03-04T03:00:54.148Z,7.87
2019-03-04T03:03:24.910Z,7.90
2019-03-04T03:05:55.667Z,7.96
2019-03-04T03:08:26.436Z,7.92
2019-03-04T03:10:57.202Z,7.85
2019-03-04T03:13:27.968Z,7.88
2019-03-04T03:15:58.737Z,7.88
2019-03-04T03:18:29.488Z,7.84
2019-03-04T03:21:00.254Z,7.91
2019-03-04T03:23:31.009Z,7.89
2019-03-04T03:26:01.811Z,7.88
2019-03-04T03:28:32.579Z,7.92
2019-03-04T03:31:03.371Z,7.91
2019-03-04T03:33:34.151Z,6.89
2019-03-04T03:36:04.902Z,7.93
2019-03-04T03:38:35.776Z,7.94
2019-03-04T03:41:06.735Z,7.91
2019-03-04T03:43:37.513Z,8.10
2019-03-04T03:46:08.376Z,8.11
2019-03-04T03:48:39.141Z,8.02
2019-03-04T03:51:09.916Z,7.97
2019-03-04T03:53:40.675Z,7.96
2019-03-04T03:56:11.429Z,7.92
2019-03-04T03:58:42.190Z,7.90
2019-03-04T04:01:12.951Z,7.85
2019-03-04T04:03:43.719Z,7.80
2019-03-04T04:06:14.541Z,7.89
2019-03-04T04:08:45.250Z,7.78
2019-03-04T04:11:16.006Z,7.74
2019-03-04T04:13:46.781Z,7.81
2019-03-04T04:16:17.537Z,7.76
2019-03-04T04:18:48.303Z,7.84
2019-03-04T04:21:19.063Z,7.87
2019-03-04T04:23:50.050Z,7.88
2019-03-04T04:26:20.796Z,7.75
2019-03-04T04:28:53.471Z,7.75
2019-03-04T04:31:24.235Z,7.76
2019-03-04T04:33:55.041Z,7.78
2019-03-04T04:36:25.791Z,7.77
2019-03-04T04:38:56.556Z,7.71
2019-03-04T04:41:27.338Z,7.81
2019-03-04T04:43:58.112Z,7.60
2019-03-04T04:46:48.932Z,7.65
2019-03-04T04:49:19.731Z,7.64
2019-03-04T04:51:50.499Z,7.68
2019-03-04T04:54:21.274Z,7.65
2019-03-04T04:56:52.056Z,7.67
2019-03-04T04:59:22.815Z,7.71
2019-03-04T05:01:53.846Z,7.55
2019-03-04T05:04:24.818Z,7.62
2019-03-04T05:06:55.573Z,7.61
2019-03-04T05:09:26.337Z,7.53
2019-03-04T05:11:57.101Z,7.45
2019-03-04T05:14:27.872Z,7.52
2019-03-04T05:16:58.631Z,7.51
2019-03-04T05:19:29.415Z,7.46
2019-03-04T05:22:00.174Z,7.45
2019-03-04T05:24:30.935Z,7.57
2019-03-04T05:27:01.690Z,7.49
2019-03-04T05:29:32.683Z,7.45
2019-03-04T05:32:03.958Z,7.52
2019-03-04T05:34:34.736Z,7.51
2019-03-04T05:37:05.494Z,7.45
2019-03-04T05:39:36.258Z,7.50
2019-03-04T05:42:07.015Z,7.38
2019-03-04T05:44:37.781Z,7.45
2019-03-04T05:47:08.533Z,7.40
2019-03-04T05:49:39.300Z,7.30
2019-03-04T05:52:10.085Z,7.30
2019-03-04T05:54:40.851Z,7.29
2019-03-04T05:57:11.605Z,7.25
2019-03-04T05:59:42.383Z,7.21
2019-03-04T06:02:13.143Z,7.26
2019-03-04T06:04:43.914Z,7.28
2019-03-04T06:07:16.574Z,7.32
2019-03-04T06:09:47.360Z,7.26
2019-03-04T06:12:18.120Z,7.28
2019-03-04T06:14:48.890Z,7.30
2019-03-04T06:17:19.646Z,7.23
2019-03-04T06:19:50.414Z,7.15
2019-03-04T06:22:21.196Z,7.11
2019-03-04T06:24:51.962Z,7.15
2019-03-04T06:27:22.717Z,7.08
2019-03-04T06:29:53.481Z,7.10
2019-03-04T06:32:24.234Z,7.11
2019-03-04T06:34:55.015Z,7.06
2019-03-04T06:37:25.770Z,7.14
2019-03-04T06:39:56.536Z,7.15
2019-03-04T06:42:27.389Z,7.22
2019-03-04T06:44:58.238Z,7.14
2019-03-04T06:47:29.006Z,7.21
2019-03-04T06:49:59.805Z,7.18
2019-03-04T06:52:30.581Z,7.22
2019-03-04T06:55:14.523Z,7.37
2019-03-04T06:57:45.289Z,7.37
2019-03-04T07:00:32.078Z,7.31
2019-03-04T07:03:03.469Z,7.32
2019-03-04T07:05:47.816Z,7.39
2019-03-04T07:08:37.748Z,7.40
2019-03-04T07:11:08.530Z,7.43
2019-03-04T07:13:39.284Z,7.48
2019-03-04T07:16:10.061Z,7.52
2019-03-04T07:18:40.808Z,7.48
2019-03-04T07:21:11.574Z,7.58
2019-03-04T07:23:42.345Z,7.58
2019-03-04T07:26:13.107Z,7.66
2019-03-04T07:28:43.859Z,7.59
2019-03-04T07:31:14.629Z,7.61
2019-03-04T07:33:45.385Z,7.68
2019-03-04T07:36:16.417Z,7.76
2019-03-04T07:38:52.101Z,7.79
2019-03-04T07:41:22.973Z,7.83
2019-03-04T07:43:53.726Z,7.89
2019-03-04T07:46:24.490Z,8.01
2019-03-04T07:48:55.246Z,7.95
2019-03-04T07:51:26.015Z,8.09
2019-03-04T07:53:56.785Z,8.06
2019-03-04T07:56:27.555Z,8.11
2019-03-04T07:58:58.311Z,8.21
2019-03-04T08:01:29.090Z,8.23
2019-03-04T08:03:59.852Z,8.35
2019-03-04T08:06:30.622Z,8.36
2019-03-04T08:09:20.682Z,8.33
2019-03-04T08:12:13.599Z,8.37
2019-03-04T08:14:45.768Z,8.44
2019-03-04T08:17:16.555Z,8.43
2019-03-04T08:19:47.310Z,8.43
2019-03-04T08:22:18.084Z,8.48
2019-03-04T08:24:48.847Z,8.53
2019-03-04T08:27:19.613Z,8.49
2019-03-04T08:29:50.373Z,8.51
2019-03-04T08:32:21.144Z,8.59
2019-03-04T08:34:51.906Z,8.60
2019-03-04T08:37:22.673Z,8.70
2019-03-04T08:39:53.432Z,8.87
2019-03-04T08:42:24.201Z,8.83
2019-03-04T08:44:54.978Z,8.88
2019-03-04T08:47:25.742Z,8.95
2019-03-04T08:49:56.501Z,9.04
2019-03-04T08:52:27.276Z,9.09
2019-03-04T08:54:58.047Z,9.26
2019-03-04T08:57:28.810Z,9.21
2019-03-04T08:59:59.575Z,9.30
2019-03-04T09:02:30.344Z,9.36
2019-03-04T09:05:01.098Z,9.45
2019-03-04T09:07:31.863Z,9.52
2019-03-04T09:10:09.196Z,9.61
2019-03-04T09:12:39.978Z,9.86
2019-03-04T09:15:12.838Z,10.10
2019-03-04T09:17:43.720Z,10.25
2019-03-04T09:20:15.883Z,10.43
2019-03-04T09:22:46.655Z,10.46
2019-03-04T09:25:30.058Z,10.80
2019-03-04T09:27:53.735Z,11.37
2019-03-04T09:30:24.497Z,11.86
2019-03-04T09:32:55.396Z,12.11
2019-03-04T09:35:26.194Z,12.29
2019-03-04T09:37:56.972Z,12.27
2019-03-04T09:40:29.782Z,12.21
2019-03-04T09:43:01.634Z,12.14
2019-03-04T09:45:38.856Z,12.35
2019-03-04T09:48:05.070Z,12.65
2019-03-04T09:50:35.825Z,13.33
2019-03-04T09:53:06.607Z,13.74
2019-03-04T09:55:37.370Z,13.99
2019-03-04T09:58:08.152Z,14.20
2019-03-04T10:00:45.470Z,14.35
2019-03-04T10:03:40.002Z,14.26
2019-03-04T10:06:32.656Z,14.75
2019-03-04T10:09:39.637Z,14.48
2019-03-04T10:12:39.938Z,14.48
2019-03-04T10:15:26.100Z,14.02
2019-03-04T10:18:06.621Z,14.02
2019-03-04T10:20:49.992Z,13.88
2019-03-04T10:23:39.815Z,13.77
2019-03-04T10:26:23.479Z,13.74
2019-03-04T10:29:07.227Z,13.72
2019-03-04T10:31:44.817Z,13.60
2019-03-04T10:34:37.562Z,13.69
2019-03-04T10:37:30.279Z,13.69
2019-03-04T10:40:11.170Z,13.69
2019-03-04T10:43:19.469Z,13.71
2019-03-04T10:46:15.667Z,13.70
2019-03-04T10:48:46.501Z,13.80
2019-03-04T10:51:18.754Z,13.84
2019-03-04T10:53:49.812Z,13.93
2019-03-04T10:56:20.581Z,13.93
2019-03-04T10:58:51.356Z,13.89
2019-03-04T11:01:30.109Z,13.95
2019-03-04T11:03:54.872Z,13.84
2019-03-04T11:06:25.622Z,13.80
2019-03-04T11:08:56.395Z,13.76
2019-03-04T11:11:30.027Z,13.68
2019-03-04T11:13:59.835Z,13.68
2019-03-04T11:16:30.615Z,13.64
2019-03-04T11:19:01.375Z,13.64
2019-03-04T11:21:32.307Z,13.61
2019-03-04T11:24:04.078Z,13.65
2019-03-04T11:26:34.841Z,13.50
2019-03-04T11:29:06.006Z,13.43
2019-03-04T11:31:36.779Z,13.19
2019-03-04T11:34:07.569Z,13.02
2019-03-04T11:36:38.336Z,12.90
2019-03-04T11:39:20.738Z,12.90
2019-03-04T11:41:51.512Z,12.81
2019-03-04T11:44:22.271Z,12.74
2019-03-04T11:46:53.071Z,12.68
2019-03-04T11:49:23.821Z,12.70
2019-03-04T11:51:54.594Z,12.67
2019-03-04T11:54:25.396Z,12.72
2019-03-04T11:56:56.127Z,12.76
2019-03-04T11:59:26.891Z,12.74
2019-03-04T12:01:57.661Z,12.81
2019-03-04T12:04:28.415Z,12.94
2019-03-04T12:06:59.190Z,12.91
2019-03-04T12:09:29.970Z,12.98
2019-03-04T12:12:00.753Z,13.02
2019-03-04T12:14:31.523Z,12.99
2019-03-04T12:17:02.398Z,13.03
2019-03-04T12:19:33.221Z,13.01
2019-03-04T12:22:03.943Z,12.89
2019-03-04T12:24:34.723Z,12.74
2019-03-04T12:27:05.685Z,12.70
2019-03-04T12:29:36.474Z,12.75
2019-03-04T12:32:08.652Z,12.81
2019-03-04T12:34:39.411Z,12.74
2019-03-04T12:37:10.178Z,12.79
2019-03-04T12:39:40.938Z,12.77
2019-03-04T12:42:11.823Z,12.78
2019-03-04T12:44:42.581Z,12.78
2019-03-04T12:47:13.354Z,12.78
2019-03-04T12:49:44.110Z,12.79
2019-03-04T12:52:14.886Z,12.90
2019-03-04T12:54:46.751Z,12.73
2019-03-04T12:57:17.522Z,12.80
2019-03-04T12:59:48.274Z,12.73
2019-03-04T13:02:19.059Z,12.68
2019-03-04T13:04:49.830Z,12.60
2019-03-04T13:07:20.597Z,12.57
2019-03-04T13:09:51.371Z,12.48
2019-03-04T13:12:22.146Z,12.43
2019-03-04T13:14:52.911Z,12.39
2019-03-04T13:17:23.678Z,12.37
2019-03-04T13:19:54.439Z,12.29
2019-03-04T13:22:25.217Z,12.17
2019-03-04T13:24:55.969Z,12.15
2019-03-04T13:27:26.736Z,12.07
2019-03-04T13:29:57.538Z,10.87
2019-03-04T13:32:28.303Z,12.00
2019-03-04T13:34:59.063Z,11.90
2019-03-04T13:37:29.830Z,11.95
2019-03-04T13:40:00.585Z,11.86
2019-03-04T13:42:31.349Z,11.85
2019-03-04T13:45:05.014Z,11.79
2019-03-04T13:47:35.805Z,11.81
2019-03-04T13:50:12.810Z,11.74
2019-03-04T13:52:43.582Z,11.69
2019-03-04T13:55:15.843Z,11.56
2019-03-04T13:57:46.612Z,11.55
2019-03-04T14:00:20.365Z,11.50
2019-03-04T14:02:51.131Z,11.51
2019-03-04T14:05:22.190Z,11.42
2019-03-04T14:07:52.959Z,11.42
2019-03-04T14:10:35.481Z,11.39
2019-03-04T14:13:06.254Z,11.35
2019-03-04T14:15:43.114Z,11.31
2019-03-04T14:18:13.888Z,11.29
2019-03-04T14:20:44.651Z,11.26
2019-03-04T14:23:15.419Z,11.20
2019-03-04T14:25:46.885Z,11.15
2019-03-04T14:28:17.653Z,11.07
2019-03-04T14:30:48.416Z,10.98
2019-03-04T14:33:19.187Z,11.00
2019-03-04T14:35:50.345Z,10.97
2019-03-04T14:38:21.371Z,10.98
2019-03-04T14:40:52.138Z,10.96
2019-03-04T14:43:22.899Z,10.90
2019-03-04T14:45:54.437Z,10.88
2019-03-04T14:48:25.330Z,10.84
2019-03-04T14:50:56.092Z,10.82
2019-03-04T14:53:26.867Z,10.85
2019-03-04T14:55:57.624Z,10.80
2019-03-04T14:58:28.385Z,10.74
2019-03-04T15:00:59.146Z,10.67
2019-03-04T15:03:29.910Z,10.70
2019-03-04T15:06:06.796Z,10.62
2019-03-04T15:08:33.354Z,10.64
2019-03-04T15:11:04.123Z,10.70
2019-03-04T15:13:34.891Z,10.69
2019-03-04T15:16:05.847Z,10.74
2019-03-04T15:18:36.626Z,10.66
2019-03-04T15:21:07.590Z,10.59
2019-03-04T15:23:38.365Z,10.58
2019-03-04T15:26:09.317Z,10.48
2019-03-04T15:28:40.122Z,10.35
2019-03-04T15:31:11.930Z,10.45
2019-03-04T15:33:42.719Z,10.44
2019-03-04T15:36:13.482Z,10.41
2019-03-04T15:38:44.239Z,10.40
2019-03-04T15:41:15.008Z,10.34
2019-03-04T15:43:45.809Z,10.35
2019-03-04T15:46:16.557Z,10.35
2019-03-04T15:48:47.315Z,10.38
2019-03-04T15:51:18.083Z,10.29
2019-03-04T15:53:48.840Z,10.23
2019-03-04T15:56:19.607Z,10.21
2019-03-04T15:58:51.766Z,10.20
2019-03-04T16:01:22.853Z,10.17
2019-03-04T16:03:53.634Z,10.15
2019-03-04T16:06:24.506Z,10.13
2019-03-04T16:08:55.265Z,10.11
2019-03-04T16:11:26.251Z,10.17
2019-03-04T16:13:57.019Z,10.18
2019-03-04T16:16:27.782Z,10.17
2019-03-04T16:18:58.664Z,10.12
2019-03-04T16:21:29.470Z,10.16
2019-03-04T16:24:00.227Z,10.08
2019-03-04T16:26:30.991Z,10.15
2019-03-04T16:29:01.763Z,10.11
2019-03-04T16:31:32.533Z,10.21
2019-03-04T16:34:03.446Z,10.20
2019-03-04T16:36:34.219Z,10.18
2019-03-04T16:39:05.189Z,10.21
2019-03-04T16:41:36.074Z,10.11
2019-03-04T16:44:06.879Z,9.89
2019-03-04T16:46:37.647Z,10.14
2019-03-04T16:49:08.417Z,10.08
2019-03-04T16:51:39.191Z,10.04
2019-03-04T16:54:09.944Z,10.10
2019-03-04T16:56:40.714Z,10.05
2019-03-04T16:59:11.568Z,10.12
2019-03-04T17:01:42.435Z,10.03
2019-03-04T17:04:13.203Z,10.00
2019-03-04T17:06:43.986Z,9.98
2019-03-04T17:09:16.163Z,9.97
2019-03-04T17:11:46.946Z,10.01
2019-03-04T17:14:17.706Z,9.96
2019-03-04T17:16:48.466Z,9.88
2019-03-04T17:19:19.223Z,9.91
2019-03-04T17:21:49.989Z,9.87
2019-03-04T17:24:21.053Z,9.78
2019-03-04T17:26:51.827Z,9.79
2019-03-04T17:29:22.579Z,9.82
2019-03-04T17:31:53.363Z,9.91
2019-03-04T17:34:24.163Z,9.92
2019-03-04T17:36:54.949Z,9.92
2019-03-04T17:39:25.691Z,10.05
2019-03-04T17:41:56.498Z,9.92
2019-03-04T17:44:27.280Z,9.94
2019-03-04T17:46:58.299Z,9.91
2019-03-04T17:49:29.088Z,9.91
2019-03-04T17:51:59.859Z,9.83
2019-03-04T17:54:30.620Z,9.82
2019-03-04T17:57:01.388Z,9.05
2019-03-04T17:59:32.142Z,9.84
2019-03-04T18:02:03.032Z,9.83
2019-03-04T18:04:33.787Z,9.63
2019-03-04T18:07:04.554Z,9.81
2019-03-04T18:09:35.309Z,9.72
2019-03-04T18:12:07.098Z,9.66
2019-03-04T18:14:37.898Z,9.71
2019-03-04T18:17:08.670Z,9.57
2019-03-04T18:19:39.440Z,9.47
2019-03-04T18:22:12.002Z,9.50
2019-03-04T18:24:42.772Z,9.42
2019-03-04T18:27:13.537Z,9.37
2019-03-04T18:29:57.397Z,9.49
2019-03-04T18:32:40.806Z,9.47
2019-03-04T18:35:24.205Z,9.38
2019-03-04T18:38:04.573Z,9.27
2019-03-04T18:40:50.746Z,9.25
2019-03-04T18:43:31.207Z,9.08
2019-03-04T18:46:28.721Z,9.01
2019-03-04T18:49:00.531Z,8.94
2019-03-04T18:51:31.504Z,8.81
2019-03-04T18:54:04.670Z,8.73
2019-03-04T18:56:35.447Z,8.74
2019-03-04T18:59:06.919Z,8.54
2019-03-04T19:01:37.798Z,8.50
2019-03-04T19:04:08.566Z,8.46
2019-03-04T19:06:39.327Z,8.39
2019-03-04T19:09:10.093Z,8.41
2019-03-04T19:11:40.864Z,8.34
2019-03-04T19:14:11.703Z,8.24
2019-03-04T19:16:42.472Z,8.31
2019-03-04T19:19:13.415Z,8.36
2019-03-04T19:21:44.182Z,8.23
2019-03-04T19:24:14.947Z,8.23
2019-03-04T19:26:45.707Z,8.14
2019-03-04T19:29:16.477Z,8.05
2019-03-04T19:31:47.238Z,7.97
2019-03-04T19:34:18.294Z,7.99
2019-03-04T19:36:49.053Z,7.92
2019-03-04T19:39:19.836Z,7.87
2019-03-04T19:41:50.585Z,7.91
2019-03-04T19:44:21.446Z,7.84
2019-03-04T19:46:52.236Z,7.78
2019-03-04T19:49:23.310Z,7.79
2019-03-04T19:51:54.218Z,7.71
2019-03-04T19:54:25.090Z,7.73
2019-03-04T19:56:55.901Z,7.60
2019-03-04T19:59:26.814Z,7.53
2019-03-04T20:01:57.879Z,7.45
2019-03-04T20:04:28.749Z,7.43
2019-03-04T20:06:59.534Z,7.43
2019-03-04T20:09:30.297Z,7.43
2019-03-04T20:12:01.157Z,7.44
2019-03-04T20:14:32.027Z,7.42
2019-03-04T20:17:02.890Z,7.37
2019-03-04T20:19:33.654Z,7.37
2019-03-04T20:22:04.416Z,7.36
2019-03-04T20:24:35.216Z,7.36
2019-03-04T20:27:05.977Z,7.37
2019-03-04T20:29:36.739Z,7.33
2019-03-04T20:32:07.496Z,7.40
2019-03-04T20:34:38.359Z,7.38
2019-03-04T20:37:09.118Z,7.29
2019-03-04T20:39:39.879Z,7.24
2019-03-04T20:42:10.634Z,7.24
2019-03-04T20:44:41.409Z,7.20
2019-03-04T20:47:12.187Z,7.21
2019-03-04T20:49:43.028Z,7.19
2019-03-04T20:52:14.093Z,7.16
2019-03-04T20:54:44.906Z,7.08
2019-03-04T20:57:15.725Z,7.16
2019-03-04T20:59:46.550Z,7.05
2019-03-04T21:02:17.348Z,7.03
2019-03-04T21:04:48.167Z,6.99
2019-03-04T21:07:19.065Z,7.01
2019-03-04T21:09:49.958Z,7.01
2019-03-04T21:12:20.752Z,7.14
2019-03-04T21:14:51.785Z,6.91
2019-03-04T21:17:22.806Z,6.89
2019-03-04T21:19:53.621Z,6.83
2019-03-04T21:22:24.525Z,6.88
2019-03-04T21:24:55.422Z,6.83
2019-03-04T21:27:26.231Z,6.80
2019-03-04T21:30:06.418Z,6.64
2019-03-04T21:32:40.704Z,6.64
2019-03-04T21:35:30.290Z,6.68
2019-03-04T21:38:01.080Z,6.61
2019-03-04T21:40:41.743Z,6.56
2019-03-04T21:43:19.360Z,6.67
2019-03-04T21:45:56.925Z,6.61
2019-03-04T21:48:46.881Z,6.65
2019-03-04T21:51:38.089Z,6.61
2019-03-04T21:54:07.522Z,6.64
2019-03-04T21:56:58.683Z,6.51
2019-03-04T21:59:29.640Z,6.48
2019-03-04T22:02:07.317Z,6.43
2019-03-04T22:04:38.562Z,6.33
2019-03-04T22:07:09.648Z,6.41
2019-03-04T22:09:40.397Z,6.44
2019-03-04T22:12:12.800Z,6.40
2019-03-04T22:14:43.559Z,6.45
2019-03-04T22:17:14.340Z,6.41
2019-03-04T22:19:45.098Z,6.33
2019-03-04T22:22:15.848Z,6.32
2019-03-04T22:24:46.685Z,6.36
2019-03-04T22:27:17.508Z,6.37
2019-03-04T22:29:48.241Z,6.37
2019-03-04T22:32:19.022Z,6.25
2019-03-04T22:34:49.781Z,6.38
2019-03-04T22:37:20.733Z,6.44
2019-03-04T22:39:51.509Z,6.49
2019-03-04T22:42:22.262Z,6.39
2019-03-04T22:44:53.025Z,6.50
2019-03-04T22:47:23.796Z,6.42
2019-03-04T22:49:54.637Z,6.41
2019-03-04T22:52:25.438Z,6.56
2019-03-04T22:54:56.179Z,6.59
2019-03-04T22:57:26.951Z,6.48
2019-03-04T22:59:57.705Z,6.47
2019-03-04T23:02:28.577Z,6.43
2019-03-04T23:04:59.350Z,6.60
2019-03-04T23:07:30.515Z,6.68
2019-03-04T23:10:01.815Z,6.70
2019-03-04T23:12:36.386Z,6.70
2019-03-04T23:15:13.782Z,6.74
2019-03-04T23:17:44.555Z,6.71
2019-03-04T23:20:15.368Z,6.71
2019-03-04T23:22:46.142Z,6.61
2019-03-04T23:25:16.897Z,6.70
2019-03-04T23:27:47.669Z,6.67
2019-03-04T23:30:18.424Z,6.59
2019-03-04T23:32:49.190Z,6.52
2019-03-04T23:35:19.951Z,6.47
2019-03-04T23:37:50.713Z,6.51
2019-03-04T23:40:21.470Z,6.52
2019-03-04T23:42:52.333Z,6.57
2019-03-04T23:45:23.095Z,6.59
2019-03-04T23:47:53.857Z,6.54
2019-03-04T23:50:24.618Z,6.64
2019-03-04T23:52:55.382Z,6.66
2019-03-04T23:55:26.141Z,6.64
2019-03-04T23:57:56.915Z,6.66
